Pagina principale
METAR-TAF:

METAR-TAF

Aeroporti :

Aeroporto di Napoli-Capodichino

Napoli, Italia

latitudine: 40-51N, longitudine: 014-18E, altezza: 88 m

Osservazione

Il bollettino è stato emesso 14 minuti fa, alle 07:20 UTC
Vento 6 kt da direzioni variabili
Temperature 15°C
Umidità 55%
Pressione 1019 hPa
Visibilità 10 km o più
Nuvoloso ad un'altezza di 6000 ft

METAR: LIRN 160720Z VRB06KT 9999 BKN060 15/06 Q1019 NOSIG

Ora: 08:34 (07:34 UTC)

Previsione

Il bollettino è stato emesso 2 ore e 34 minuti fa, alle 05:00 UTC
Previsione valida dal 16 alle 06 UTC al 17 alle 06 UTC
Vento 12 kt da nord-est
Visibilità 10 km o più
Poco nuvoloso ad un'altezza di 3000 ft
Evoluzione graduale
dal 16 alle 16 UTC al 16 alle 18 UTC
Vento 15 kt da nord-est con raffiche fino a 25 kt

TAF: LIRN 160500Z 1606/1706 04012KT 9999 FEW030 BECMG 1616/1618 04015G25KT

Osservazioni e previsioni meteorologiche di più di 4000 aeroporti (messaggi METAR e TAF).

Le stazioni disponibili sono rappresentate dai dischi gialli e rossi sulla carta.

Puntare il mouse per vedere il nome della stazione.

Clicca sopra per visualizzare le osservazioni e previsioni meteorologiche.

Per cambiare la mappa : fare clic sui pulsanti verdi con una croce nera per ingrandire, il pulsante verde con un trattino per diminuire, o sulla freccia verde per le mappe adiacenti.


METAR-TAF: